Shana Des Slops — FFZR — position and weather

sailwx.info

Track history (hours):
 
Tides and Currents Weather Stations Pressure Air Temp Water Temp Dewpoint Dewpoint Depression Visibility Wind Speed Wind Dir Waves Ship Positions

Shana Des Slops

Last reported at 2015-Apr-01 12:29 UTC. Time now 2015-Apr-01 13:16 UTC.
Position N 43°24' E 004°60'.

Length 47 m; draft 3.2 m.

Type: Tanker. MMSI: 228003800.

Date/timePositionNaut miles runAvg speedWind from/ knotsBaromVisibWave heightAir tempDewpointWater temp
2015-Apr-01 12:29N 43°24' E 004°60'0 0.0
2015-Apr-01 11:23N 43°24' E 004°60'0 0.0
2015-Apr-01 10:29N 43°24' E 004°60'0 0.0
2015-Apr-01 09:29N 43°24' E 004°60'0 0.4
2015-Apr-01 08:31N 43°24' E 004°60'0 0.2
2015-Apr-01 07:33N 43°24' E 004°60'0 0.3
2015-Apr-01 06:33N 43°24' E 004°60'0 0.0
2015-Apr-01 05:33N 43°24' E 004°60'0 0.0
2015-Apr-01 04:33N 43°24' E 004°60'0 0.0
2015-Apr-01 03:33N 43°24' E 004°60'0 0.0
2015-Apr-01 02:33N 43°24' E 004°60'0 0.0
2015-Apr-01 01:33N 43°24' E 004°60'0 0.0
2015-Apr-01 00:28N 43°24' E 004°60'0 0.0
2015-Mar-31 23:27N 43°24' E 004°60'0 0.0
2015-Mar-31 22:33N 43°24' E 004°60'0 0.0
2015-Mar-31 21:33N 43°24' E 004°60'0 0.0
2015-Mar-31 20:33N 43°24' E 004°60'0 0.0
2015-Mar-31 19:31N 43°24' E 004°60'0 0.0
2015-Mar-31 18:31N 43°24' E 004°60'0 0.0
2015-Mar-31 17:31N 43°24' E 004°60'0 0.0
2015-Mar-31 16:25N 43°24' E 004°60'0 0.0
2015-Mar-31 15:31N 43°24' E 004°60'0 0.0
2015-Mar-31 14:31N 43°24' E 004°60'0 0.0
2015-Mar-31 13:31N 43°24' E 004°60'0 0.0
2015-Mar-31 12:31N 43°24' E 004°60'0 0.0
2015-Mar-31 11:30N 43°24' E 004°60'0 0.0
2015-Mar-31 10:27N 43°24' E 004°60'0 0.0
2015-Mar-31 09:30N 43°24' E 004°60'0 0.0
2015-Mar-31 08:33N 43°24' E 004°60'0 0.0
2015-Mar-31 07:30N 43°24' E 004°60'0 0.0
2015-Mar-31 06:34N 43°24' E 004°60'0 0.0
2015-Mar-31 05:30N 43°24' E 004°60'0 0.0
2015-Mar-31 04:30N 43°24' E 004°60'0 0.0
2015-Mar-31 03:30N 43°24' E 004°60'0 0.0
2015-Mar-31 02:30N 43°24' E 004°60'0 0.0
2015-Mar-31 01:30N 43°24' E 004°60'0 0.0
2015-Mar-31 00:30N 43°24' E 004°60'0 0.0
2015-Mar-30 23:31N 43°24' E 004°60'0 0.0
2015-Mar-30 22:31N 43°24' E 004°60'0 0.0
2015-Mar-30 21:31N 43°24' E 004°60'0 0.0
2015-Mar-30 20:28N 43°24' E 004°60'0 0.0
2015-Mar-30 19:28N 43°24' E 004°60'0 0.0
2015-Mar-30 18:31N 43°24' E 004°60'0 0.0
2015-Mar-30 17:31N 43°24' E 004°60'0 0.0
2015-Mar-30 16:31N 43°24' E 004°60'0 0.0
2015-Mar-30 15:28N 43°24' E 004°60'0 0.0
2015-Mar-30 14:28N 43°24' E 004°60'0 0.0
2015-Mar-30 13:28N 43°24' E 004°60'0 0.0
2015-Mar-30 12:28N 43°24' E 004°60'0 0.0
2015-Mar-30 11:31N 43°24' E 004°60'0 0.0
2015-Mar-30 10:28N 43°24' E 004°60'1 1.5
2015-Mar-30 09:33N 43°23' E 004°59'4 4.0
2015-Mar-30 08:31N 43°25' E 004°53'0 0.0
2015-Mar-30 07:28N 43°25' E 004°53'0 0.0
2015-Mar-30 06:28N 43°25' E 004°53'2 1.9
2015-Mar-30 05:33N 43°24' E 004°55'3 3.3
2015-Mar-30 04:31N 43°24' E 004°60'0 0.0
2015-Mar-30 03:31N 43°24' E 004°60'0 0.0
2015-Mar-30 02:31N 43°24' E 004°60'0 0.0
2015-Mar-30 01:31N 43°24' E 004°60'0 0.0
2015-Mar-30 00:25N 43°24' E 004°60'0 0.0
2015-Mar-29 23:33N 43°24' E 004°60'0 0.0
2015-Mar-29 22:33N 43°24' E 004°60'0 0.0
2015-Mar-29 21:33N 43°24' E 004°60'0 0.0
2015-Mar-29 20:33N 43°24' E 004°60'0 0.0
2015-Mar-29 19:33N 43°24' E 004°60'0 0.0
2015-Mar-29 18:27N 43°24' E 004°60'0 0.0
2015-Mar-29 17:33N 43°24' E 004°60'0 0.0
2015-Mar-29 16:33N 43°24' E 004°60'0 0.0
2015-Mar-29 15:33N 43°24' E 004°60'0 0.0
2015-Mar-29 14:33N 43°24' E 004°60'0 0.0
2015-Mar-29 13:33N 43°24' E 004°60'0 0.0
2015-Mar-29 12:33N 43°24' E 004°60'0 0.0
2015-Mar-29 11:33N 43°24' E 004°60'0 0.0
2015-Mar-29 10:33N 43°24' E 004°60'0 0.0
2015-Mar-29 09:30N 43°24' E 004°60'0 0.0
2015-Mar-29 08:24N 43°24' E 004°60'0 0.0
2015-Mar-29 07:30N 43°24' E 004°60'0 0.0
2015-Mar-29 06:33N 43°24' E 004°60'0 0.0
2015-Mar-29 05:18N 43°24' E 004°60'0 0.0
2015-Mar-29 04:33N 43°24' E 004°60'0 0.0
2015-Mar-29 03:30N 43°24' E 004°60'0 0.0
2015-Mar-29 02:30N 43°24' E 004°60'0 0.0
2015-Mar-29 01:33N 43°24' E 004°60'0 0.0
2015-Mar-29 00:30N 43°24' E 004°60'0 0.0
2015-Mar-28 23:33N 43°24' E 004°60'0 0.0
2015-Mar-28 22:33N 43°24' E 004°60'0 0.0
2015-Mar-28 21:33N 43°24' E 004°60'0 0.0
2015-Mar-28 20:33N 43°24' E 004°60'0 0.0
2015-Mar-28 19:33N 43°24' E 004°60'0 0.0
2015-Mar-28 18:33N 43°24' E 004°60'0 0.0
2015-Mar-28 17:24N 43°24' E 004°60'0 0.0
2015-Mar-28 16:33N 43°24' E 004°60'0 0.0
2015-Mar-28 15:27N 43°24' E 004°60'0 0.0
2015-Mar-28 14:33N 43°24' E 004°60'0 0.0
2015-Mar-28 13:33N 43°24' E 004°60'0 0.0
2015-Mar-28 12:33N 43°24' E 004°60'0 0.0
2015-Mar-28 11:33N 43°24' E 004°60'0 0.0
2015-Mar-28 10:33N 43°24' E 004°60'0 0.0
2015-Mar-28 09:33N 43°24' E 004°60'0 0.0
2015-Mar-28 08:27N 43°24' E 004°60'0 0.0
2015-Mar-28 07:33N 43°24' E 004°60'0 0.0
2015-Mar-28 06:33N 43°24' E 004°60'0 0.0
2015-Mar-28 05:33N 43°24' E 004°60'0 0.0
2015-Mar-28 04:33N 43°24' E 004°60'0 0.0
2015-Mar-28 03:33N 43°24' E 004°60'0 0.0
2015-Mar-28 02:33N 43°24' E 004°60'0 0.0
2015-Mar-28 01:33N 43°24' E 004°60'0 0.0
2015-Mar-28 00:30N 43°24' E 004°60'0 0.0
2015-Mar-27 23:33N 43°24' E 004°60'0 0.0
2015-Mar-27 22:33N 43°24' E 004°60'0 0.0
2015-Mar-27 21:33N 43°24' E 004°60'0 0.0
2015-Mar-27 20:24N 43°24' E 004°60'0 0.0
2015-Mar-27 19:33N 43°24' E 004°60'0 0.0
2015-Mar-27 18:33N 43°24' E 004°60'0 0.0
2015-Mar-27 17:33N 43°24' E 004°60'0 0.0
2015-Mar-27 16:33N 43°24' E 004°60'0 0.0
2015-Mar-27 15:31N 43°24' E 004°60'0 0.0
2015-Mar-27 14:31N 43°24' E 004°60'0 0.0
2015-Mar-27 13:31N 43°24' E 004°60'0 0.0
2015-Mar-27 12:31N 43°24' E 004°60'0 0.0
2015-Mar-27 11:31N 43°24' E 004°60'0 0.0
2015-Mar-27 10:31N 43°24' E 004°60'0 0.0
2015-Mar-27 09:31N 43°24' E 004°60'0 0.0
2015-Mar-27 08:31N 43°24' E 004°60'0 0.0
2015-Mar-27 07:31N 43°24' E 004°60'0 0.0
2015-Mar-27 06:31N 43°24' E 004°60'0 0.0
2015-Mar-27 05:31N 43°24' E 004°60'0 0.0
2015-Mar-27 04:25N 43°24' E 004°60'0 0.0
2015-Mar-27 03:25N 43°24' E 004°60'0 0.0
2015-Mar-27 02:31N 43°24' E 004°60'0 0.0
2015-Mar-27 01:31N 43°24' E 004°60'0 0.0
2015-Mar-27 00:31N 43°24' E 004°60'0 0.0
2015-Mar-26 23:31N 43°24' E 004°60'0 0.0
2015-Mar-26 22:31N 43°24' E 004°60'0 0.0
2015-Mar-26 21:28N 43°24' E 004°60'0 0.0
2015-Mar-26 20:31N 43°24' E 004°60'0 0.0
2015-Mar-26 19:31N 43°24' E 004°60'0 0.0
2015-Mar-26 18:31N 43°24' E 004°60'1 0.5
2015-Mar-26 17:33N 43°24' E 004°60'0 0.1
2015-Mar-26 16:34N 43°24' E 004°60'0 0.0
2015-Mar-26 15:33N 43°24' E 004°60'0 0.0
2015-Mar-26 14:33N 43°24' E 004°60'0 0.0
2015-Mar-26 13:33N 43°24' E 004°60'0 0.0
2015-Mar-26 12:34N 43°24' E 004°60'0 0.0
2015-Mar-26 11:33N 43°24' E 004°60'0 0.0
2015-Mar-26 10:33N 43°24' E 004°60'1 0.5
2015-Mar-26 09:32N 43°24' E 004°60'0 0.0
2015-Mar-26 08:32N 43°24' E 004°60'0 0.0
2015-Mar-26 07:32N 43°24' E 004°60'0 0.0
2015-Mar-26 06:32N 43°24' E 004°60'0 0.0
2015-Mar-26 05:26N 43°24' E 004°60'0 0.0
2015-Mar-26 04:32N 43°24' E 004°60'0 0.0
2015-Mar-26 03:32N 43°24' E 004°60'0 0.0
2015-Mar-26 02:32N 43°24' E 004°60'0 0.0
2015-Mar-26 01:32N 43°24' E 004°60'0 0.0
2015-Mar-26 00:32N 43°24' E 004°60'0 0.0
2015-Mar-25 23:32N 43°24' E 004°60'0 0.0
2015-Mar-25 22:32N 43°24' E 004°60'0 0.0
2015-Mar-25 21:33N 43°24' E 004°60'0 0.0
2015-Mar-25 20:33N 43°24' E 004°60'0 0.0
2015-Mar-25 19:33N 43°24' E 004°60'0 0.0
2015-Mar-25 18:33N 43°24' E 004°60'0 0.0
2015-Mar-25 17:33N 43°24' E 004°60'0 0.0
2015-Mar-25 16:33N 43°24' E 004°60'0 0.0
2015-Mar-25 15:33N 43°24' E 004°60'0 0.0
2015-Mar-25 14:33N 43°24' E 004°60'1 0.8
2015-Mar-25 13:34N 43°24' E 005°01'0 0.0
2015-Mar-25 12:31N 43°24' E 005°01'0 0.0
2015-Mar-25 11:31N 43°24' E 005°01'0 0.0
2015-Mar-25 10:31N 43°24' E 005°01'0 0.0
2015-Mar-25 09:31N 43°24' E 005°01'0 0.0
2015-Mar-25 08:31N 43°24' E 005°01'1 0.9
2015-Mar-25 07:33N 43°24' E 004°60'0 0.0
2015-Mar-25 06:33N 43°24' E 004°60'0 0.0
2015-Mar-25 05:33N 43°24' E 004°60'0 0.0
2015-Mar-25 04:33N 43°24' E 004°60'0 0.0
2015-Mar-25 03:33N 43°24' E 004°60'0 0.0
2015-Mar-25 02:33N 43°24' E 004°60'0 0.0
2015-Mar-25 01:31N 43°24' E 004°60'0 0.0
2015-Mar-25 00:31N 43°24' E 004°60'0 0.0
2015-Mar-24 23:31N 43°24' E 004°60'0 0.0
2015-Mar-24 22:31N 43°24' E 004°60'0 0.0
2015-Mar-24 21:31N 43°24' E 004°60'0 0.0
2015-Mar-24 20:31N 43°24' E 004°60'0 0.0
2015-Mar-24 19:31N 43°24' E 004°60'0 0.0
2015-Mar-24 18:31N 43°24' E 004°60'0 0.0
2015-Mar-24 17:31N 43°24' E 004°60'0 0.0
2015-Mar-24 16:31N 43°24' E 004°60'0 0.0
2015-Mar-24 15:31N 43°24' E 004°60'0 0.0
2015-Mar-24 14:31N 43°24' E 004°60'0 0.0
2015-Mar-24 13:31N 43°24' E 004°60'0 0.0
2015-Mar-24 12:31N 43°24' E 004°60'0 0.0
2015-Mar-24 11:31N 43°24' E 004°60'3 3.5
2015-Mar-24 10:33N 43°22' E 004°57'0 0.2
2015-Mar-24 09:31N 43°22' E 004°56'0 0.0
2015-Mar-24 08:32N 43°22' E 004°56'0 0.0
2015-Mar-24 07:34N 43°22' E 004°56'4 3.4
2015-Mar-24 06:31N 43°24' E 004°60'0 0.0
2015-Mar-24 05:34N 43°24' E 004°60'0 0.0
2015-Mar-24 04:28N 43°24' E 004°60'0 0.0
2015-Mar-24 03:31N 43°24' E 004°60'0 0.0
2015-Mar-24 02:31N 43°24' E 004°60'0 0.0
2015-Mar-24 01:31N 43°24' E 004°60'0 0.0
2015-Mar-24 00:31N 43°24' E 004°60'0 0.0
2015-Mar-23 23:34N 43°24' E 004°60'2 2.4
2015-Mar-23 22:33N 43°23' E 004°57'1 1.0
2015-Mar-23 21:33N 43°22' E 004°56'0 0.0
2015-Mar-23 20:27N 43°22' E 004°56'0 0.0
2015-Mar-23 19:33N 43°22' E 004°56'0 0.0
2015-Mar-23 18:33N 43°22' E 004°56'0 0.0
2015-Mar-23 17:32N 43°22' E 004°56'0 0.0
2015-Mar-23 16:33N 43°22' E 004°56'0 0.0
2015-Mar-23 15:29N 43°22' E 004°56'0 0.0
2015-Mar-23 14:33N 43°22' E 004°56'0 0.0
2015-Mar-23 13:33N 43°22' E 004°56'0 0.0
2015-Mar-23 12:33N 43°22' E 004°56'3 3.4
2015-Mar-23 11:31N 43°24' E 004°60'0 0.0
2015-Mar-23 10:31N 43°24' E 004°60'0 0.0
2015-Mar-23 09:31N 43°24' E 004°60'0 0.0
2015-Mar-23 08:31N 43°24' E 004°60'0 0.0
2015-Mar-23 07:31N 43°24' E 004°60'0 0.0
2015-Mar-23 06:31N 43°24' E 004°60'0 0.0
2015-Mar-23 05:32N 43°24' E 004°60'0 0.0
2015-Mar-23 04:31N 43°24' E 004°60'0 0.0
2015-Mar-23 03:31N 43°24' E 004°60'0 0.0
2015-Mar-23 02:31N 43°24' E 004°60'0 0.0
2015-Mar-23 01:31N 43°24' E 004°60'0 0.0
2015-Mar-23 00:28N 43°24' E 004°60'0 0.0
2015-Mar-22 23:31N 43°24' E 004°60'0 0.0
2015-Mar-22 22:31N 43°24' E 004°60'0 0.0
2015-Mar-22 21:31N 43°24' E 004°60'0 0.0
2015-Mar-22 20:31N 43°24' E 004°60'0 0.0
2015-Mar-22 19:31N 43°24' E 004°60'0 0.0
2015-Mar-22 18:31N 43°24' E 004°60'0 0.0
2015-Mar-22 17:31N 43°24' E 004°60'0 0.0
2015-Mar-22 16:31N 43°24' E 004°60'0 0.0
2015-Mar-22 15:33N 43°24' E 004°60'0 0.0
2015-Mar-22 14:33N 43°24' E 004°60'0 0.0
2015-Mar-22 13:33N 43°24' E 004°60'0 0.0
2015-Mar-22 12:31N 43°24' E 004°60'  
Track history (hours):
 
Tides and Currents Weather Stations Pressure Air Temp Water Temp Dewpoint Dewpoint Depression Visibility Wind Speed Wind Dir Waves Ship Positions

Shana Des Slops

Last reported at 2015-Apr-01 12:29 UTC. Time now 2015-Apr-01 13:16 UTC.
Position N 43°24' E 004°60'.

Length 47 m; draft 3.2 m.

Type: Tanker. MMSI: 228003800.

Date/timePositionNaut miles runAvg speedWind from/ knotsBaromVisibWave heightAir tempDewpointWater temp
2015-Apr-01 12:29N 43°24' E 004°60'0 0.0
2015-Apr-01 11:23N 43°24' E 004°60'0 0.0
2015-Apr-01 10:29N 43°24' E 004°60'0 0.0
2015-Apr-01 09:29N 43°24' E 004°60'0 0.4
2015-Apr-01 08:31N 43°24' E 004°60'0 0.2
2015-Apr-01 07:33N 43°24' E 004°60'0 0.3
2015-Apr-01 06:33N 43°24' E 004°60'0 0.0
2015-Apr-01 05:33N 43°24' E 004°60'0 0.0
2015-Apr-01 04:33N 43°24' E 004°60'0 0.0
2015-Apr-01 03:33N 43°24' E 004°60'0 0.0
2015-Apr-01 02:33N 43°24' E 004°60'0 0.0
2015-Apr-01 01:33N 43°24' E 004°60'0 0.0
2015-Apr-01 00:28N 43°24' E 004°60'0 0.0
2015-Mar-31 23:27N 43°24' E 004°60'0 0.0
2015-Mar-31 22:33N 43°24' E 004°60'0 0.0
2015-Mar-31 21:33N 43°24' E 004°60'0 0.0
2015-Mar-31 20:33N 43°24' E 004°60'0 0.0
2015-Mar-31 19:31N 43°24' E 004°60'0 0.0
2015-Mar-31 18:31N 43°24' E 004°60'0 0.0
2015-Mar-31 17:31N 43°24' E 004°60'0 0.0
2015-Mar-31 16:25N 43°24' E 004°60'0 0.0
2015-Mar-31 15:31N 43°24' E 004°60'0 0.0
2015-Mar-31 14:31N 43°24' E 004°60'0 0.0
2015-Mar-31 13:31N 43°24' E 004°60'0 0.0
2015-Mar-31 12:31N 43°24' E 004°60'0 0.0
2015-Mar-31 11:30N 43°24' E 004°60'0 0.0
2015-Mar-31 10:27N 43°24' E 004°60'0 0.0
2015-Mar-31 09:30N 43°24' E 004°60'0 0.0
2015-Mar-31 08:33N 43°24' E 004°60'0 0.0
2015-Mar-31 07:30N 43°24' E 004°60'0 0.0
2015-Mar-31 06:34N 43°24' E 004°60'0 0.0
2015-Mar-31 05:30N 43°24' E 004°60'0 0.0
2015-Mar-31 04:30N 43°24' E 004°60'0 0.0
2015-Mar-31 03:30N 43°24' E 004°60'0 0.0
2015-Mar-31 02:30N 43°24' E 004°60'0 0.0
2015-Mar-31 01:30N 43°24' E 004°60'0 0.0
2015-Mar-31 00:30N 43°24' E 004°60'0 0.0
2015-Mar-30 23:31N 43°24' E 004°60'0 0.0
2015-Mar-30 22:31N 43°24' E 004°60'0 0.0
2015-Mar-30 21:31N 43°24' E 004°60'0 0.0
2015-Mar-30 20:28N 43°24' E 004°60'0 0.0
2015-Mar-30 19:28N 43°24' E 004°60'0 0.0
2015-Mar-30 18:31N 43°24' E 004°60'0 0.0
2015-Mar-30 17:31N 43°24' E 004°60'0 0.0
2015-Mar-30 16:31N 43°24' E 004°60'0 0.0
2015-Mar-30 15:28N 43°24' E 004°60'0 0.0
2015-Mar-30 14:28N 43°24' E 004°60'0 0.0
2015-Mar-30 13:28N 43°24' E 004°60'0 0.0
2015-Mar-30 12:28N 43°24' E 004°60'0 0.0
2015-Mar-30 11:31N 43°24' E 004°60'0 0.0
2015-Mar-30 10:28N 43°24' E 004°60'1 1.5
2015-Mar-30 09:33N 43°23' E 004°59'4 4.0
2015-Mar-30 08:31N 43°25' E 004°53'0 0.0
2015-Mar-30 07:28N 43°25' E 004°53'0 0.0
2015-Mar-30 06:28N 43°25' E 004°53'2 1.9
2015-Mar-30 05:33N 43°24' E 004°55'3 3.3
2015-Mar-30 04:31N 43°24' E 004°60'0 0.0
2015-Mar-30 03:31N 43°24' E 004°60'0 0.0
2015-Mar-30 02:31N 43°24' E 004°60'0 0.0
2015-Mar-30 01:31N 43°24' E 004°60'0 0.0
2015-Mar-30 00:25N 43°24' E 004°60'0 0.0
2015-Mar-29 23:33N 43°24' E 004°60'0 0.0
2015-Mar-29 22:33N 43°24' E 004°60'0 0.0
2015-Mar-29 21:33N 43°24' E 004°60'0 0.0
2015-Mar-29 20:33N 43°24' E 004°60'0 0.0
2015-Mar-29 19:33N 43°24' E 004°60'0 0.0
2015-Mar-29 18:27N 43°24' E 004°60'0 0.0
2015-Mar-29 17:33N 43°24' E 004°60'0 0.0
2015-Mar-29 16:33N 43°24' E 004°60'0 0.0
2015-Mar-29 15:33N 43°24' E 004°60'0 0.0
2015-Mar-29 14:33N 43°24' E 004°60'0 0.0
2015-Mar-29 13:33N 43°24' E 004°60'0 0.0
2015-Mar-29 12:33N 43°24' E 004°60'0 0.0
2015-Mar-29 11:33N 43°24' E 004°60'0 0.0
2015-Mar-29 10:33N 43°24' E 004°60'0 0.0
2015-Mar-29 09:30N 43°24' E 004°60'0 0.0
2015-Mar-29 08:24N 43°24' E 004°60'0 0.0
2015-Mar-29 07:30N 43°24' E 004°60'0 0.0
2015-Mar-29 06:33N 43°24' E 004°60'0 0.0
2015-Mar-29 05:18N 43°24' E 004°60'0 0.0
2015-Mar-29 04:33N 43°24' E 004°60'0 0.0
2015-Mar-29 03:30N 43°24' E 004°60'0 0.0
2015-Mar-29 02:30N 43°24' E 004°60'0 0.0
2015-Mar-29 01:33N 43°24' E 004°60'0 0.0
2015-Mar-29 00:30N 43°24' E 004°60'0 0.0
2015-Mar-28 23:33N 43°24' E 004°60'0 0.0
2015-Mar-28 22:33N 43°24' E 004°60'0 0.0
2015-Mar-28 21:33N 43°24' E 004°60'0 0.0
2015-Mar-28 20:33N 43°24' E 004°60'0 0.0
2015-Mar-28 19:33N 43°24' E 004°60'0 0.0
2015-Mar-28 18:33N 43°24' E 004°60'0 0.0
2015-Mar-28 17:24N 43°24' E 004°60'0 0.0
2015-Mar-28 16:33N 43°24' E 004°60'0 0.0
2015-Mar-28 15:27N 43°24' E 004°60'0 0.0
2015-Mar-28 14:33N 43°24' E 004°60'0 0.0
2015-Mar-28 13:33N 43°24' E 004°60'0 0.0
2015-Mar-28 12:33N 43°24' E 004°60'0 0.0
2015-Mar-28 11:33N 43°24' E 004°60'0 0.0
2015-Mar-28 10:33N 43°24' E 004°60'0 0.0
2015-Mar-28 09:33N 43°24' E 004°60'0 0.0
2015-Mar-28 08:27N 43°24' E 004°60'0 0.0
2015-Mar-28 07:33N 43°24' E 004°60'0 0.0
2015-Mar-28 06:33N 43°24' E 004°60'0 0.0
2015-Mar-28 05:33N 43°24' E 004°60'0 0.0
2015-Mar-28 04:33N 43°24' E 004°60'0 0.0
2015-Mar-28 03:33N 43°24' E 004°60'0 0.0
2015-Mar-28 02:33N 43°24' E 004°60'0 0.0
2015-Mar-28 01:33N 43°24' E 004°60'0 0.0
2015-Mar-28 00:30N 43°24' E 004°60'0 0.0
2015-Mar-27 23:33N 43°24' E 004°60'0 0.0
2015-Mar-27 22:33N 43°24' E 004°60'0 0.0
2015-Mar-27 21:33N 43°24' E 004°60'0 0.0
2015-Mar-27 20:24N 43°24' E 004°60'0 0.0
2015-Mar-27 19:33N 43°24' E 004°60'0 0.0
2015-Mar-27 18:33N 43°24' E 004°60'0 0.0
2015-Mar-27 17:33N 43°24' E 004°60'0 0.0
2015-Mar-27 16:33N 43°24' E 004°60'0 0.0
2015-Mar-27 15:31N 43°24' E 004°60'0 0.0
2015-Mar-27 14:31N 43°24' E 004°60'0 0.0
2015-Mar-27 13:31N 43°24' E 004°60'0 0.0
2015-Mar-27 12:31N 43°24' E 004°60'0 0.0
2015-Mar-27 11:31N 43°24' E 004°60'0 0.0
2015-Mar-27 10:31N 43°24' E 004°60'0 0.0
2015-Mar-27 09:31N 43°24' E 004°60'0 0.0
2015-Mar-27 08:31N 43°24' E 004°60'0 0.0
2015-Mar-27 07:31N 43°24' E 004°60'0 0.0
2015-Mar-27 06:31N 43°24' E 004°60'0 0.0
2015-Mar-27 05:31N 43°24' E 004°60'0 0.0
2015-Mar-27 04:25N 43°24' E 004°60'0 0.0
2015-Mar-27 03:25N 43°24' E 004°60'0 0.0
2015-Mar-27 02:31N 43°24' E 004°60'0 0.0
2015-Mar-27 01:31N 43°24' E 004°60'0 0.0
2015-Mar-27 00:31N 43°24' E 004°60'0 0.0
2015-Mar-26 23:31N 43°24' E 004°60'0 0.0
2015-Mar-26 22:31N 43°24' E 004°60'0 0.0
2015-Mar-26 21:28N 43°24' E 004°60'0 0.0
2015-Mar-26 20:31N 43°24' E 004°60'0 0.0
2015-Mar-26 19:31N 43°24' E 004°60'0 0.0
2015-Mar-26 18:31N 43°24' E 004°60'1 0.5
2015-Mar-26 17:33N 43°24' E 004°60'0 0.1
2015-Mar-26 16:34N 43°24' E 004°60'0 0.0
2015-Mar-26 15:33N 43°24' E 004°60'0 0.0
2015-Mar-26 14:33N 43°24' E 004°60'0 0.0
2015-Mar-26 13:33N 43°24' E 004°60'0 0.0
2015-Mar-26 12:34N 43°24' E 004°60'0 0.0
2015-Mar-26 11:33N 43°24' E 004°60'0 0.0
2015-Mar-26 10:33N 43°24' E 004°60'1 0.5
2015-Mar-26 09:32N 43°24' E 004°60'0 0.0
2015-Mar-26 08:32N 43°24' E 004°60'0 0.0
2015-Mar-26 07:32N 43°24' E 004°60'0 0.0
2015-Mar-26 06:32N 43°24' E 004°60'0 0.0
2015-Mar-26 05:26N 43°24' E 004°60'0 0.0
2015-Mar-26 04:32N 43°24' E 004°60'0 0.0
2015-Mar-26 03:32N 43°24' E 004°60'0 0.0
2015-Mar-26 02:32N 43°24' E 004°60'0 0.0
2015-Mar-26 01:32N 43°24' E 004°60'0 0.0
2015-Mar-26 00:32N 43°24' E 004°60'0 0.0
2015-Mar-25 23:32N 43°24' E 004°60'0 0.0
2015-Mar-25 22:32N 43°24' E 004°60'0 0.0
2015-Mar-25 21:33N 43°24' E 004°60'0 0.0
2015-Mar-25 20:33N 43°24' E 004°60'0 0.0
2015-Mar-25 19:33N 43°24' E 004°60'0 0.0
2015-Mar-25 18:33N 43°24' E 004°60'0 0.0
2015-Mar-25 17:33N 43°24' E 004°60'0 0.0
2015-Mar-25 16:33N 43°24' E 004°60'0 0.0
2015-Mar-25 15:33N 43°24' E 004°60'0 0.0
2015-Mar-25 14:33N 43°24' E 004°60'1 0.8
2015-Mar-25 13:34N 43°24' E 005°01'0 0.0
2015-Mar-25 12:31N 43°24' E 005°01'0 0.0
2015-Mar-25 11:31N 43°24' E 005°01'0 0.0
2015-Mar-25 10:31N 43°24' E 005°01'0 0.0
2015-Mar-25 09:31N 43°24' E 005°01'0 0.0
2015-Mar-25 08:31N 43°24' E 005°01'1 0.9
2015-Mar-25 07:33N 43°24' E 004°60'0 0.0
2015-Mar-25 06:33N 43°24' E 004°60'0 0.0
2015-Mar-25 05:33N 43°24' E 004°60'0 0.0
2015-Mar-25 04:33N 43°24' E 004°60'0 0.0
2015-Mar-25 03:33N 43°24' E 004°60'0 0.0
2015-Mar-25 02:33N 43°24' E 004°60'0 0.0
2015-Mar-25 01:31N 43°24' E 004°60'0 0.0
2015-Mar-25 00:31N 43°24' E 004°60'0 0.0
2015-Mar-24 23:31N 43°24' E 004°60'0 0.0
2015-Mar-24 22:31N 43°24' E 004°60'0 0.0
2015-Mar-24 21:31N 43°24' E 004°60'0 0.0
2015-Mar-24 20:31N 43°24' E 004°60'0 0.0
2015-Mar-24 19:31N 43°24' E 004°60'0 0.0
2015-Mar-24 18:31N 43°24' E 004°60'0 0.0
2015-Mar-24 17:31N 43°24' E 004°60'0 0.0
2015-Mar-24 16:31N 43°24' E 004°60'0 0.0
2015-Mar-24 15:31N 43°24' E 004°60'0 0.0
2015-Mar-24 14:31N 43°24' E 004°60'0 0.0
2015-Mar-24 13:31N 43°24' E 004°60'0 0.0
2015-Mar-24 12:31N 43°24' E 004°60'0 0.0
2015-Mar-24 11:31N 43°24' E 004°60'3 3.5
2015-Mar-24 10:33N 43°22' E 004°57'0 0.2
2015-Mar-24 09:31N 43°22' E 004°56'0 0.0
2015-Mar-24 08:32N 43°22' E 004°56'0 0.0
2015-Mar-24 07:34N 43°22' E 004°56'4 3.4
2015-Mar-24 06:31N 43°24' E 004°60'0 0.0
2015-Mar-24 05:34N 43°24' E 004°60'0 0.0
2015-Mar-24 04:28N 43°24' E 004°60'0 0.0
2015-Mar-24 03:31N 43°24' E 004°60'0 0.0
2015-Mar-24 02:31N 43°24' E 004°60'0 0.0
2015-Mar-24 01:31N 43°24' E 004°60'0 0.0
2015-Mar-24 00:31N 43°24' E 004°60'0 0.0
2015-Mar-23 23:34N 43°24' E 004°60'2 2.4
2015-Mar-23 22:33N 43°23' E 004°57'1 1.0
2015-Mar-23 21:33N 43°22' E 004°56'0 0.0
2015-Mar-23 20:27N 43°22' E 004°56'0 0.0
2015-Mar-23 19:33N 43°22' E 004°56'0 0.0
2015-Mar-23 18:33N 43°22' E 004°56'0 0.0
2015-Mar-23 17:32N 43°22' E 004°56'0 0.0
2015-Mar-23 16:33N 43°22' E 004°56'0 0.0
2015-Mar-23 15:29N 43°22' E 004°56'0 0.0
2015-Mar-23 14:33N 43°22' E 004°56'0 0.0
2015-Mar-23 13:33N 43°22' E 004°56'0 0.0
2015-Mar-23 12:33N 43°22' E 004°56'3 3.4
2015-Mar-23 11:31N 43°24' E 004°60'0 0.0
2015-Mar-23 10:31N 43°24' E 004°60'0 0.0
2015-Mar-23 09:31N 43°24' E 004°60'0 0.0
2015-Mar-23 08:31N 43°24' E 004°60'0 0.0
2015-Mar-23 07:31N 43°24' E 004°60'0 0.0
2015-Mar-23 06:31N 43°24' E 004°60'0 0.0
2015-Mar-23 05:32N 43°24' E 004°60'0 0.0
2015-Mar-23 04:31N 43°24' E 004°60'0 0.0
2015-Mar-23 03:31N 43°24' E 004°60'0 0.0
2015-Mar-23 02:31N 43°24' E 004°60'0 0.0
2015-Mar-23 01:31N 43°24' E 004°60'0 0.0
2015-Mar-23 00:28N 43°24' E 004°60'0 0.0
2015-Mar-22 23:31N 43°24' E 004°60'0 0.0
2015-Mar-22 22:31N 43°24' E 004°60'0 0.0
2015-Mar-22 21:31N 43°24' E 004°60'0 0.0
2015-Mar-22 20:31N 43°24' E 004°60'0 0.0
2015-Mar-22 19:31N 43°24' E 004°60'0 0.0
2015-Mar-22 18:31N 43°24' E 004°60'0 0.0
2015-Mar-22 17:31N 43°24' E 004°60'0 0.0
2015-Mar-22 16:31N 43°24' E 004°60'0 0.0
2015-Mar-22 15:33N 43°24' E 004°60'0 0.0
2015-Mar-22 14:33N 43°24' E 004°60'0 0.0
2015-Mar-22 13:33N 43°24' E 004°60'0 0.0
2015-Mar-22 12:31N 43°24' E 004°60'  

Dump ship's entire track history